createdAt,value
2022-08-04T00:02:29.929Z,99.90
2022-08-04T00:05:05.492Z,99.90
2022-08-04T00:07:48.264Z,99.90
2022-08-04T00:10:18.018Z,99.90
2022-08-04T00:12:49.830Z,99.90
2022-08-04T00:15:17.976Z,99.90
2022-08-04T00:17:50.447Z,99.90
2022-08-04T00:20:19.248Z,99.90
2022-08-04T00:22:47.966Z,99.90
2022-08-04T00:25:15.294Z,99.90
2022-08-04T00:27:42.048Z,99.90
2022-08-04T00:30:09.351Z,99.90
2022-08-04T00:32:36.416Z,99.90
2022-08-04T00:35:03.794Z,99.90
2022-08-04T00:37:32.813Z,99.90
2022-08-04T00:40:00.610Z,99.90
2022-08-04T00:42:34.490Z,99.90
2022-08-04T00:45:18.998Z,99.90
2022-08-04T00:48:01.942Z,99.90
2022-08-04T00:50:56.333Z,99.90
2022-08-04T00:53:31.525Z,99.90
2022-08-04T00:56:04.576Z,99.90
2022-08-04T00:58:49.945Z,99.90
2022-08-04T01:01:33.099Z,99.90
2022-08-04T01:04:22.131Z,99.90
2022-08-04T01:07:00.984Z,99.90
2022-08-04T01:09:27.710Z,99.90
2022-08-04T01:12:41.608Z,99.90
2022-08-04T01:15:56.479Z,99.90
2022-08-04T01:18:30.818Z,99.90
2022-08-04T01:21:06.867Z,99.90
2022-08-04T01:24:21.868Z,99.90
2022-08-04T01:27:03.997Z,99.90
2022-08-04T01:29:46.428Z,99.90
2022-08-04T01:32:26.075Z,99.90
2022-08-04T01:35:47.469Z,99.90
2022-08-04T01:38:29.422Z,99.90
2022-08-04T01:41:14.940Z,99.90
2022-08-04T01:43:44.242Z,99.90
2022-08-04T01:46:16.566Z,99.90
2022-08-04T01:48:46.978Z,99.90
2022-08-04T01:51:14.130Z,99.90
2022-08-04T01:53:43.162Z,99.90
2022-08-04T01:56:11.833Z,99.90
2022-08-04T01:58:40.243Z,99.90
2022-08-04T02:01:10.614Z,99.90
2022-08-04T02:04:19.669Z,99.90
2022-08-04T02:06:46.698Z,99.90
2022-08-04T02:09:32.181Z,99.90
2022-08-04T02:12:16.634Z,99.90
2022-08-04T02:14:59.892Z,99.90
2022-08-04T02:17:38.067Z,99.90
2022-08-04T02:20:12.432Z,99.90
2022-08-04T02:23:01.616Z,99.90
2022-08-04T02:25:32.605Z,99.90
2022-08-04T02:28:11.373Z,99.90
2022-08-04T02:30:45.600Z,99.90
2022-08-04T02:33:18.058Z,99.90
2022-08-04T02:35:50.274Z,99.90
2022-08-04T02:38:27.571Z,99.90
2022-08-04T02:40:59.341Z,99.90
2022-08-04T02:43:50.958Z,99.90
2022-08-04T02:46:20.935Z,99.90
2022-08-04T02:48:49.975Z,99.90
2022-08-04T02:51:21.534Z,99.90
2022-08-04T02:53:52.352Z,99.90
2022-08-04T02:56:21.636Z,99.90
2022-08-04T02:58:52.810Z,99.90
2022-08-04T03:01:21.790Z,99.90
2022-08-04T03:04:24.683Z,99.90
2022-08-04T03:07:33.587Z,99.90
2022-08-04T03:10:18.450Z,99.90
2022-08-04T03:12:48.082Z,99.90
2022-08-04T03:15:48.435Z,99.90
2022-08-04T03:18:27.030Z,99.90
2022-08-04T03:21:05.815Z,99.90
2022-08-04T03:23:47.716Z,99.90
2022-08-04T03:26:26.617Z,99.90
2022-08-04T03:29:10.857Z,99.90
2022-08-04T03:32:04.560Z,99.90
2022-08-04T03:35:03.670Z,99.90
2022-08-04T03:38:08.896Z,99.90
2022-08-04T03:41:04.911Z,99.90
2022-08-04T03:44:21.038Z,99.90
2022-08-04T03:46:54.471Z,99.90
2022-08-04T03:49:51.420Z,99.90
2022-08-04T03:52:55.153Z,99.90
2022-08-04T03:55:46.534Z,99.90
2022-08-04T03:58:43.098Z,99.90
2022-08-04T04:01:16.050Z,99.90
2022-08-04T04:04:02.145Z,99.90
2022-08-04T04:06:39.260Z,99.90
2022-08-04T04:09:56.742Z,99.90
2022-08-04T04:12:34.862Z,99.90
2022-08-04T04:15:07.693Z,99.90
2022-08-04T04:17:43.741Z,99.90
2022-08-04T04:20:22.538Z,99.90
2022-08-04T04:23:11.042Z,99.90
2022-08-04T04:26:04.945Z,99.90
2022-08-04T04:28:55.068Z,99.90
2022-08-04T04:31:27.842Z,99.90
2022-08-04T04:34:21.821Z,99.90
2022-08-04T04:37:12.430Z,99.90
2022-08-04T04:39:51.957Z,99.90
2022-08-04T04:42:52.321Z,99.90
2022-08-04T04:45:34.412Z,99.90
2022-08-04T04:48:10.562Z,99.90
2022-08-04T04:50:40.780Z,99.90
2022-08-04T04:53:27.910Z,99.90
2022-08-04T04:56:04.528Z,99.90
2022-08-04T04:58:34.154Z,99.90
2022-08-04T05:01:18.078Z,99.90
2022-08-04T05:03:59.906Z,99.90
2022-08-04T05:06:54.561Z,99.90
2022-08-04T05:09:43.550Z,99.90
2022-08-04T05:14:26.362Z,99.90
2022-08-04T05:15:12.168Z,99.90
2022-08-04T05:17:41.755Z,99.90
2022-08-04T05:20:20.598Z,99.90
2022-08-04T05:23:01.018Z,99.90
2022-08-04T05:25:50.174Z,99.90
2022-08-04T05:28:36.527Z,99.90
2022-08-04T05:31:11.322Z,99.90
2022-08-04T05:33:47.838Z,99.90
2022-08-04T05:36:39.577Z,99.90
2022-08-04T05:39:07.724Z,99.90
2022-08-04T05:41:45.389Z,99.90
2022-08-04T05:44:19.779Z,99.90
2022-08-04T05:46:53.560Z,99.90
2022-08-04T05:49:23.198Z,99.90
2022-08-04T05:51:51.102Z,99.90
2022-08-04T05:54:20.971Z,99.90
2022-08-04T05:56:48.876Z,99.90
2022-08-04T05:59:18.481Z,99.90
2022-08-04T06:01:55.826Z,99.90
2022-08-04T06:04:38.099Z,99.90
2022-08-04T06:07:05.624Z,99.90
2022-08-04T06:09:32.956Z,99.90
2022-08-04T06:12:04.550Z,99.90
2022-08-04T06:14:36.643Z,99.90
2022-08-04T06:17:06.097Z,99.90
2022-08-04T06:20:01.199Z,99.90
2022-08-04T06:22:42.993Z,99.90
2022-08-04T06:25:12.341Z,99.90
2022-08-04T06:27:40.360Z,99.90
2022-08-04T06:30:11.612Z,99.90
2022-08-04T06:32:47.864Z,99.90
2022-08-04T06:35:15.753Z,99.90
2022-08-04T06:37:44.366Z,99.90
2022-08-04T06:40:31.434Z,99.90
2022-08-04T06:43:04.951Z,99.90
2022-08-04T06:45:34.820Z,99.90
2022-08-04T06:48:03.602Z,99.90
2022-08-04T06:51:31.982Z,99.90
2022-08-04T06:53:18.251Z,99.90
2022-08-04T06:55:47.323Z,99.90
2022-08-04T06:58:16.357Z,99.90
2022-08-04T07:00:45.641Z,99.90
2022-08-04T07:03:13.248Z,99.90
2022-08-04T07:05:41.342Z,99.90
2022-08-04T07:08:11.193Z,99.90
2022-08-04T07:10:38.861Z,99.90
2022-08-04T07:13:07.477Z,99.90
2022-08-04T07:15:35.768Z,99.90
2022-08-04T07:18:04.776Z,99.60
2022-08-04T07:20:36.275Z,99.00
2022-08-04T07:23:07.339Z,98.70
2022-08-04T07:25:57.290Z,98.70
2022-08-04T07:28:25.176Z,97.40
2022-08-04T07:30:53.841Z,97.70
2022-08-04T07:33:22.119Z,96.90
2022-08-04T07:36:04.929Z,95.80
2022-08-04T07:38:48.082Z,95.70
2022-08-04T07:41:40.295Z,94.90
2022-08-04T07:44:08.308Z,95.40
2022-08-04T07:46:36.520Z,94.20
2022-08-04T07:49:04.076Z,93.90
2022-08-04T07:51:31.982Z,94.10
2022-08-04T07:54:00.503Z,93.80
2022-08-04T07:56:28.436Z,93.10
2022-08-04T07:58:55.853Z,93.10
2022-08-04T08:01:24.586Z,93.00
2022-08-04T08:03:53.130Z,93.30
2022-08-04T08:06:31.354Z,92.50
2022-08-04T08:09:12.102Z,92.60
2022-08-04T08:12:35.822Z,92.10
2022-08-04T08:14:30.531Z,90.70
2022-08-04T08:17:00.113Z,91.10
2022-08-04T08:19:27.135Z,91.10
2022-08-04T08:21:58.935Z,91.70
2022-08-04T08:24:27.238Z,90.90
2022-08-04T08:26:54.305Z,91.00
2022-08-04T08:29:21.620Z,91.00
2022-08-04T08:31:57.187Z,91.90
2022-08-04T08:34:30.945Z,90.50
2022-08-04T08:37:20.117Z,90.20
2022-08-04T08:40:11.203Z,90.10
2022-08-04T08:43:59.872Z,89.80
2022-08-04T08:46:03.637Z,89.70
2022-08-04T08:49:02.006Z,89.30
2022-08-04T08:51:37.079Z,88.10
2022-08-04T08:54:53.079Z,89.60
2022-08-04T08:57:33.854Z,88.90
2022-08-04T09:00:18.934Z,86.20
2022-08-04T09:03:04.848Z,87.20
2022-08-04T09:05:57.161Z,86.60
2022-08-04T09:08:42.368Z,86.00
2022-08-04T09:11:13.544Z,86.80
2022-08-04T09:13:43.977Z,87.60
2022-08-04T09:16:22.018Z,85.50
2022-08-04T09:19:10.442Z,84.80
2022-08-04T09:22:07.446Z,83.90
2022-08-04T09:24:45.670Z,84.60
2022-08-04T09:27:18.552Z,83.00
2022-08-04T09:30:07.017Z,84.20
2022-08-04T09:32:45.778Z,82.80
2022-08-04T09:35:41.915Z,84.30
2022-08-04T09:38:36.003Z,85.20
2022-08-04T09:41:20.758Z,82.20
2022-08-04T09:44:50.410Z,88.10
2022-08-04T09:47:08.968Z,83.90
2022-08-04T09:49:57.806Z,87.50
2022-08-04T09:52:27.930Z,78.80
2022-08-04T09:55:07.333Z,84.80
2022-08-04T09:57:49.056Z,82.30
2022-08-04T10:00:17.776Z,82.50
2022-08-04T10:02:53.715Z,81.80
2022-08-04T10:05:25.434Z,79.20
2022-08-04T10:08:39.915Z,78.90
2022-08-04T10:11:14.607Z,83.10
2022-08-04T10:13:44.129Z,80.90
2022-08-04T10:16:24.682Z,79.50
2022-08-04T10:18:57.345Z,77.70
2022-08-04T10:21:31.986Z,77.10
2022-08-04T10:24:07.695Z,77.90
2022-08-04T10:26:56.897Z,76.60
2022-08-04T10:29:32.971Z,76.70
2022-08-04T10:32:09.436Z,74.00
2022-08-04T10:35:10.087Z,79.00
2022-08-04T10:37:59.040Z,72.50
2022-08-04T10:40:36.499Z,76.50
2022-08-04T10:43:42.426Z,72.30
2022-08-04T10:46:16.177Z,78.20
2022-08-04T10:49:09.647Z,80.40
2022-08-04T10:51:58.404Z,77.60
2022-08-04T10:54:43.905Z,73.80
2022-08-04T10:57:41.455Z,75.00
2022-08-04T11:00:16.566Z,68.40
2022-08-04T11:03:07.241Z,74.20
2022-08-04T11:05:52.671Z,74.50
2022-08-04T11:08:23.406Z,69.70
2022-08-04T11:11:08.981Z,69.40
2022-08-04T11:13:47.585Z,68.40
2022-08-04T11:16:21.506Z,67.30
2022-08-04T11:19:45.185Z,67.90
2022-08-04T11:22:23.660Z,68.20
2022-08-04T11:25:20.833Z,67.70
2022-08-04T11:28:02.761Z,68.10
2022-08-04T11:30:55.165Z,69.80
2022-08-04T11:33:46.848Z,67.90
2022-08-04T11:36:25.005Z,69.20
2022-08-04T11:39:19.974Z,70.00
2022-08-04T11:41:56.628Z,67.20
2022-08-04T11:44:34.920Z,68.70
2022-08-04T11:47:08.686Z,68.80
2022-08-04T11:49:56.896Z,69.30
2022-08-04T11:52:27.714Z,68.70
2022-08-04T11:54:57.069Z,67.90
2022-08-04T11:57:35.290Z,68.20
2022-08-04T12:00:10.622Z,66.90
2022-08-04T12:03:25.746Z,68.20
2022-08-04T12:06:23.552Z,68.40
2022-08-04T12:08:56.349Z,68.10
2022-08-04T12:11:51.191Z,70.20
2022-08-04T12:14:30.645Z,69.00
2022-08-04T12:17:03.068Z,68.00
2022-08-04T12:20:02.418Z,67.30
2022-08-04T12:22:28.365Z,69.20
2022-08-04T12:25:04.175Z,66.50
2022-08-04T12:27:39.748Z,69.30
2022-08-04T12:31:00.825Z,66.40
2022-08-04T12:33:20.128Z,66.30
2022-08-04T12:36:10.243Z,66.80
2022-08-04T12:38:48.436Z,67.10
2022-08-04T12:41:21.340Z,66.80
2022-08-04T12:43:50.194Z,68.30
2022-08-04T12:46:25.362Z,66.10
2022-08-04T12:48:58.811Z,68.20
2022-08-04T12:52:05.895Z,66.40
2022-08-04T12:54:28.353Z,66.10
2022-08-04T12:56:58.812Z,66.80
2022-08-04T12:59:25.801Z,66.80
2022-08-04T13:02:07.937Z,66.70
2022-08-04T13:04:42.696Z,67.10
2022-08-04T13:07:22.490Z,67.40
2022-08-04T13:09:51.597Z,67.50
2022-08-04T13:12:32.300Z,68.10
2022-08-04T13:15:10.654Z,69.80
2022-08-04T13:18:05.179Z,67.70
2022-08-04T13:20:39.925Z,68.70
2022-08-04T13:23:21.707Z,67.10
2022-08-04T13:26:42.868Z,66.20
2022-08-04T13:28:45.005Z,66.40
2022-08-04T13:31:16.814Z,67.30
2022-08-04T13:33:48.224Z,68.20
2022-08-04T13:36:17.053Z,69.40
2022-08-04T13:38:51.530Z,68.90
2022-08-04T13:41:20.370Z,66.00
2022-08-04T13:44:19.244Z,67.50
2022-08-04T13:46:50.466Z,68.00
2022-08-04T13:52:10.794Z,68.10
2022-08-04T13:54:44.158Z,68.30
2022-08-04T13:57:22.448Z,68.80
2022-08-04T13:59:53.334Z,68.00
2022-08-04T14:02:37.742Z,68.80
2022-08-04T14:05:18.537Z,68.50
2022-08-04T14:07:51.442Z,70.30
2022-08-04T14:10:18.398Z,69.40
2022-08-04T14:12:50.539Z,68.70
2022-08-04T14:16:01.206Z,70.00
2022-08-04T14:18:31.954Z,67.90
2022-08-04T14:21:11.984Z,68.10
2022-08-04T14:23:48.174Z,70.60
2022-08-04T14:26:32.172Z,70.00
2022-08-04T14:29:27.251Z,70.70
2022-08-04T14:32:12.680Z,69.30
2022-08-04T14:34:49.757Z,68.30
2022-08-04T14:37:20.513Z,69.00
2022-08-04T14:40:19.039Z,70.50
2022-08-04T14:42:55.586Z,69.00
2022-08-04T14:45:33.577Z,69.00
2022-08-04T14:48:01.182Z,70.00
2022-08-04T14:50:45.763Z,69.90
2022-08-04T14:53:14.489Z,69.80
2022-08-04T14:55:47.468Z,70.10
2022-08-04T14:58:36.946Z,70.20
2022-08-04T15:01:12.091Z,70.60
2022-08-04T15:03:49.788Z,70.10
2022-08-04T15:06:22.142Z,70.60
2022-08-04T15:08:51.747Z,71.30
2022-08-04T15:11:22.748Z,69.30
2022-08-04T15:13:54.725Z,69.40
2022-08-04T15:16:26.216Z,70.10
2022-08-04T15:18:54.825Z,69.70
2022-08-04T15:21:25.849Z,71.10
2022-08-04T15:23:52.680Z,70.90
2022-08-04T15:26:35.358Z,71.10
2022-08-04T15:29:26.079Z,71.50
2022-08-04T15:32:04.825Z,70.50
2022-08-04T15:34:49.758Z,69.70
2022-08-04T15:37:25.450Z,70.10
2022-08-04T15:39:58.864Z,71.60
2022-08-04T15:43:02.808Z,68.70
2022-08-04T15:46:37.057Z,69.80
2022-08-04T15:48:44.970Z,70.80
2022-08-04T15:51:14.677Z,68.80
2022-08-04T15:54:01.131Z,69.40
2022-08-04T15:56:29.673Z,68.60
2022-08-04T15:58:58.391Z,73.90
2022-08-04T16:01:27.451Z,69.60
2022-08-04T16:03:59.873Z,71.30
2022-08-04T16:06:29.766Z,74.00
2022-08-04T16:09:05.022Z,70.40
2022-08-04T16:11:39.954Z,69.40
2022-08-04T16:14:10.122Z,69.30
2022-08-04T16:16:36.874Z,72.60
2022-08-04T16:19:13.324Z,71.30
2022-08-04T16:21:51.489Z,70.50
2022-08-04T16:24:22.134Z,69.60
2022-08-04T16:26:55.157Z,67.10
2022-08-04T16:29:23.337Z,66.30
2022-08-04T16:32:05.430Z,69.90
2022-08-04T16:34:50.035Z,68.10
2022-08-04T16:37:29.395Z,68.10
2022-08-04T16:40:38.120Z,69.80
2022-08-04T16:43:13.041Z,70.80
2022-08-04T16:45:42.461Z,68.10
2022-08-04T16:48:10.796Z,68.60
2022-08-04T16:50:51.384Z,68.10
2022-08-04T16:53:53.703Z,70.30
2022-08-04T16:56:08.815Z,69.90
2022-08-04T16:58:36.725Z,68.90
2022-08-04T17:01:21.714Z,69.20
2022-08-04T17:04:04.938Z,67.30
2022-08-04T17:06:36.951Z,70.70
2022-08-04T17:09:12.313Z,70.90
2022-08-04T17:11:39.958Z,70.90
2022-08-04T17:14:06.902Z,69.00
2022-08-04T17:16:37.854Z,69.10
2022-08-04T17:19:05.835Z,72.50
2022-08-04T17:21:35.104Z,71.30
2022-08-04T17:24:12.788Z,70.70
2022-08-04T17:26:53.934Z,70.70
2022-08-04T17:29:42.795Z,70.70
2022-08-04T17:32:20.791Z,72.40
2022-08-04T17:34:55.015Z,75.10
2022-08-04T17:37:39.950Z,74.00
2022-08-04T17:40:18.534Z,74.00
2022-08-04T17:42:50.765Z,76.30
2022-08-04T17:45:50.830Z,74.90
2022-08-04T17:48:09.493Z,74.40
2022-08-04T17:50:36.706Z,75.00
2022-08-04T17:53:12.096Z,75.60
2022-08-04T17:55:47.656Z,76.90
2022-08-04T17:58:22.396Z,78.00
2022-08-04T18:01:22.687Z,78.40
2022-08-04T18:03:51.521Z,76.80
2022-08-04T18:06:21.086Z,78.00
2022-08-04T18:08:58.844Z,78.70
2022-08-04T18:11:29.928Z,82.50
2022-08-04T18:14:10.371Z,80.60
2022-08-04T18:16:46.729Z,77.90
2022-08-04T18:19:15.900Z,78.70
2022-08-04T18:21:59.501Z,79.00
2022-08-04T18:24:35.466Z,79.20
2022-08-04T18:27:18.163Z,82.00
2022-08-04T18:29:56.506Z,84.10
2022-08-04T18:32:33.581Z,85.60
2022-08-04T18:35:05.480Z,86.00
2022-08-04T18:38:05.170Z,82.10
2022-08-04T18:40:26.564Z,82.20
2022-08-04T18:42:59.981Z,87.30
2022-08-04T18:45:34.301Z,83.70
2022-08-04T18:48:14.067Z,83.90
2022-08-04T18:51:09.674Z,83.50
2022-08-04T18:53:35.617Z,84.50
2022-08-04T18:56:06.375Z,83.60
2022-08-04T18:58:46.675Z,84.10
2022-08-04T19:01:15.265Z,84.60
2022-08-04T19:03:44.657Z,84.10
2022-08-04T19:06:14.226Z,86.10
2022-08-04T19:08:45.288Z,85.90
2022-08-04T19:11:28.675Z,84.90
2022-08-04T19:14:04.566Z,84.60
2022-08-04T19:16:32.693Z,84.50
2022-08-04T19:19:02.011Z,84.50
2022-08-04T19:22:00.032Z,84.90
2022-08-04T19:24:32.094Z,84.90
2022-08-04T19:29:49.954Z,86.00
2022-08-04T19:32:16.800Z,86.30
2022-08-04T19:34:47.604Z,86.70
2022-08-04T19:37:57.271Z,87.60
2022-08-04T19:40:08.099Z,87.20
2022-08-04T19:42:36.659Z,87.60
2022-08-04T19:45:04.000Z,87.40
2022-08-04T19:48:12.320Z,89.70
2022-08-04T19:50:17.955Z,89.40
2022-08-04T19:52:52.133Z,88.20
2022-08-04T19:55:22.117Z,89.60
2022-08-04T19:57:50.449Z,89.80
2022-08-04T20:00:33.034Z,90.00
2022-08-04T20:03:02.638Z,89.90
2022-08-04T20:05:52.836Z,90.10
2022-08-04T20:08:17.102Z,90.50
2022-08-04T20:10:51.416Z,90.70
2022-08-04T20:13:22.254Z,90.90
2022-08-04T20:15:58.027Z,91.20
2022-08-04T20:18:35.719Z,91.10
2022-08-04T20:21:11.297Z,91.30
2022-08-04T20:23:48.138Z,91.50
2022-08-04T20:26:15.644Z,91.30
2022-08-04T20:28:42.493Z,91.70
2022-08-04T20:31:18.227Z,91.90
2022-08-04T20:36:32.643Z,92.40
2022-08-04T20:38:59.390Z,92.60
2022-08-04T20:41:26.348Z,92.70
2022-08-04T20:44:03.818Z,93.00
2022-08-04T20:46:30.561Z,93.20
2022-08-04T20:48:58.188Z,93.50
2022-08-04T20:51:31.966Z,93.70
2022-08-04T20:54:01.803Z,93.80
2022-08-04T20:56:30.782Z,94.00
2022-08-04T20:58:59.656Z,94.20
2022-08-04T21:01:27.046Z,94.40
2022-08-04T21:04:27.409Z,94.80
2022-08-04T21:07:00.005Z,94.70
2022-08-04T21:09:37.573Z,94.70
2022-08-04T21:12:10.389Z,94.90
2022-08-04T21:14:37.183Z,95.30
2022-08-04T21:17:07.205Z,95.60
2022-08-04T21:19:36.799Z,95.60
2022-08-04T21:22:10.222Z,95.90
2022-08-04T21:24:37.691Z,95.60
2022-08-04T21:27:06.366Z,95.80
2022-08-04T21:29:36.691Z,96.10
2022-08-04T21:32:05.726Z,96.00
2022-08-04T21:34:39.003Z,96.30
2022-08-04T21:37:07.139Z,96.20
2022-08-04T21:42:27.985Z,96.10
2022-08-04T21:44:57.360Z,96.30
2022-08-04T21:47:24.191Z,96.50
2022-08-04T21:49:56.077Z,96.50
2022-08-04T21:52:24.718Z,96.40
2022-08-04T21:54:54.174Z,96.60
2022-08-04T21:57:24.733Z,96.70
2022-08-04T21:59:51.895Z,97.20
2022-08-04T22:02:18.660Z,97.40
2022-08-04T22:04:45.562Z,97.30
2022-08-04T22:07:12.445Z,97.40
2022-08-04T22:09:59.971Z,97.10
2022-08-04T22:12:29.917Z,96.60
2022-08-04T22:14:59.786Z,97.00
2022-08-04T22:17:29.447Z,97.60
2022-08-04T22:20:02.493Z,97.50
2022-08-04T22:22:29.966Z,97.80
2022-08-04T22:25:01.687Z,97.70
2022-08-04T22:27:47.592Z,97.30
2022-08-04T22:30:23.558Z,98.20
2022-08-04T22:32:50.427Z,97.90
2022-08-04T22:35:36.605Z,98.10
2022-08-04T22:38:07.824Z,97.90
2022-08-04T22:40:50.069Z,98.10
2022-08-04T22:43:32.167Z,98.70
2022-08-04T22:45:59.902Z,99.00
2022-08-04T22:48:29.014Z,99.00
2022-08-04T22:50:59.620Z,99.00
2022-08-04T22:53:26.450Z,99.20
2022-08-04T22:56:06.904Z,99.50
2022-08-04T22:58:36.149Z,99.70
2022-08-04T23:01:07.859Z,99.90
2022-08-04T23:03:37.457Z,99.90
2022-08-04T23:06:11.720Z,99.90
2022-08-04T23:08:43.282Z,99.90
2022-08-04T23:11:13.666Z,99.90
2022-08-04T23:13:41.541Z,99.90
2022-08-04T23:16:09.887Z,99.90
2022-08-04T23:18:41.830Z,99.90
2022-08-04T23:21:10.486Z,99.90
2022-08-04T23:23:55.294Z,99.90
2022-08-04T23:26:27.860Z,99.90
2022-08-04T23:28:56.768Z,99.90
2022-08-04T23:31:24.428Z,99.90
2022-08-04T23:33:52.384Z,99.90
2022-08-04T23:36:29.738Z,99.90
2022-08-04T23:39:04.134Z,99.90
2022-08-04T23:41:54.015Z,99.90
2022-08-04T23:44:24.249Z,99.90
2022-08-04T23:47:00.245Z,99.90
2022-08-04T23:49:43.561Z,99.90
2022-08-04T23:52:28.308Z,99.90
2022-08-04T23:54:59.161Z,99.90
2022-08-04T23:57:31.193Z,99.90
